Time;durP1;ratioP1;P1;durP2;ratioP2;P2;SDS_P1;SDS_P2;PMS_P1;PMS_P2;Temp;Humidity;BMP_temperature;BMP_pressure;BME280_temperature;BME280_humidity;BME280_pressure;Samples;Min_cycle;Max_cycle;Signal;HPM_P1;HPM_P2
2021/04/04 00:00:49;;;;;;;28.63;9.98;;;;;;;6.22;66.97;102159.34;5052565;28;19912;-76
2021/04/04 00:03:24;;;;;;;33.83;10.98;;;;;;;6.03;67.50;102161.50;5052754;28;20052;-72
2021/04/04 00:05:52;;;;;;;31.27;9.52;;;;;;;6.11;67.21;102158.34;5034521;28;20060;-72
2021/04/04 00:08:24;;;;;;;32.70;10.38;;;;;;;6.18;66.96;102164.47;5020128;28;20040;-72
2021/04/04 00:11:03;;;;;;;39.20;11.10;;;;;;;6.21;67.06;102163.13;5035842;28;20052;-72
2021/04/04 00:13:35;;;;;;;37.83;11.23;;;;;;;6.24;67.03;102155.25;5050793;28;20045;-74
2021/04/04 00:16:11;;;;;;;36.33;10.82;;;;;;;6.01;67.67;102169.13;5049580;28;20048;-74
2021/04/04 00:19:00;;;;;;;37.05;10.77;;;;;;;5.93;67.66;102164.06;5050839;28;20049;-73
2021/04/04 00:21:49;;;;;;;38.15;10.95;;;;;;;6.16;67.07;102163.06;5034631;28;20060;-75
2021/04/04 00:24:17;;;;;;;31.30;10.85;;;;;;;6.18;66.63;102163.66;5035372;28;20057;-71
2021/04/04 00:26:48;;;;;;;33.92;10.75;;;;;;;6.37;66.20;102152.19;5054018;28;20068;-72
2021/04/04 00:29:39;;;;;;;39.50;10.45;;;;;;;6.32;66.56;102148.56;5035318;28;20049;-74
2021/04/04 00:32:17;;;;;;;38.35;10.73;;;;;;;5.96;66.99;102169.06;5052538;28;20048;-74
2021/04/04 00:34:50;;;;;;;34.15;10.25;;;;;;;5.81;68.11;102154.22;5052449;28;20041;-75
2021/04/04 00:37:33;;;;;;;36.35;9.80;;;;;;;5.69;68.46;102157.03;5045301;28;20059;-74
2021/04/04 00:44:40;;;;;;;42.15;10.07;;;;;;;5.58;68.62;102155.19;5052554;28;20065;-74
2021/04/04 00:47:10;;;;;;;39.17;10.63;;;;;;;5.68;68.15;102150.72;5046911;28;20048;-73
2021/04/04 00:50:06;;;;;;;34.88;9.80;;;;;;;5.89;67.82;102156.59;5052222;28;20148;-72
2021/04/04 00:52:35;;;;;;;31.85;9.82;;;;;;;5.63;68.44;102153.38;5056158;28;20049;-73
2021/04/04 00:59:36;;;;;;;29.45;9.85;;;;;;;5.62;68.23;102153.63;5051597;28;20036;-72
2021/04/04 01:02:05;;;;;;;34.97;10.00;;;;;;;5.63;68.37;102153.38;5055403;28;20061;-76
2021/04/04 01:04:55;;;;;;;35.17;9.38;;;;;;;5.74;68.10;102157.97;4956056;28;20039;-72
2021/04/04 01:07:44;;;;;;;33.22;9.85;;;;;;;5.55;68.36;102148.31;4956490;29;20367;-74
2021/04/04 01:14:45;;;;;;;32.35;9.55;;;;;;;5.46;69.05;102148.94;5036026;28;20040;-73
2021/04/04 01:17:19;;;;;;;32.47;9.70;;;;;;;5.61;68.78;102152.78;5033522;28;20045;-73
2021/04/04 01:20:14;;;;;;;40.42;9.20;;;;;;;5.67;68.39;102154.56;5018638;28;20041;-73
2021/04/04 01:22:54;;;;;;;38.05;10.32;;;;;;;5.63;67.82;102155.31;5001379;28;20472;-74
2021/04/04 01:29:43;;;;;;;30.77;9.02;;;;;;;5.56;68.64;102144.50;5036438;28;20065;-74
2021/04/04 01:32:14;;;;;;;40.90;10.40;;;;;;;5.62;67.96;102150.88;5018398;28;20049;-74
2021/04/04 01:34:48;;;;;;;39.85;10.73;;;;;;;5.75;67.80;102159.59;5036451;28;20045;-74
2021/04/04 01:37:17;;;;;;;26.53;9.47;;;;;;;5.56;68.24;102149.97;4969380;28;20052;-79
2021/04/04 01:39:51;;;;;;;34.60;10.77;;;;;;;5.52;68.91;102158.91;5017940;28;20052;-74
2021/04/04 01:42:21;;;;;;;36.85;10.50;;;;;;;5.28;69.14;102149.16;5001590;28;20046;-75
2021/04/04 01:44:49;;;;;;;;;;;;;;;5.25;69.83;102150.47;5036729;28;20054;-76
2021/04/04 01:47:35;;;;;;;35.88;10.15;;;;;;;5.32;69.39;102161.25;5021794;28;19928;-77
2021/04/04 01:50:36;;;;;;;36.83;10.57;;;;;;;5.58;68.63;102157.91;5037123;28;20045;-75
2021/04/04 01:53:09;;;;;;;40.20;11.60;;;;;;;5.64;68.11;102146.00;5019936;28;20042;-75
2021/04/04 02:00:18;;;;;;;36.22;11.10;;;;;;;5.45;69.10;102152.75;5034404;28;20041;-73
2021/04/04 02:03:11;;;;;;;37.30;10.68;;;;;;;5.39;68.70;102157.28;5034479;28;20060;-73
2021/04/04 02:05:39;;;;;;;33.13;10.70;;;;;;;5.21;69.83;102148.47;5034721;28;20041;-76
2021/04/04 02:08:15;;;;;;;34.70;11.07;;;;;;;5.39;69.25;102149.09;5032322;28;20053;-74
2021/04/04 02:10:44;;;;;;;36.72;11.43;;;;;;;5.51;68.24;102152.59;5034328;28;20052;-72
2021/04/04 02:17:49;;;;;;;30.27;11.15;;;;;;;5.26;69.89;102143.94;4956740;28;20043;-75
2021/04/04 02:20:22;;;;;;;34.83;11.02;;;;;;;5.25;69.43;102146.88;4973120;28;20066;-73
2021/04/04 02:22:50;;;;;;;34.42;10.07;;;;;;;5.17;70.09;102155.50;4966526;28;20050;-73
2021/04/04 02:25:18;;;;;;;34.53;10.63;;;;;;;5.35;69.49;102166.25;4958431;28;20071;-72
2021/04/04 02:32:14;;;;;;;35.47;10.68;;;;;;;5.17;70.50;102150.03;5041704;28;20040;-74
2021/04/04 02:34:44;;;;;;;34.10;10.75;;;;;;;5.30;69.79;102144.28;5036493;28;20056;-73
2021/04/04 02:37:22;;;;;;;34.67;10.90;;;;;;;5.28;69.70;102149.16;5054145;28;20060;-76
2021/04/04 02:40:03;;;;;;;39.05;11.82;;;;;;;5.35;69.09;102136.19;5052403;28;20049;-72
2021/04/04 02:47:07;;;;;;;32.40;11.77;;;;;;;5.07;70.56;102127.97;5052859;28;20037;-74
2021/04/04 02:49:44;;;;;;;38.65;11.48;;;;;;;5.27;69.98;102129.19;5053182;28;20116;-73
2021/04/04 02:52:16;;;;;;;36.83;11.05;;;;;;;5.35;69.38;102122.53;5052678;28;20049;-76
2021/04/04 02:54:52;;;;;;;38.45;11.70;;;;;;;5.50;69.02;102125.53;5051769;28;20056;-72
2021/04/04 02:57:28;;;;;;;50.50;12.50;;;;;;;5.19;69.89;102128.75;5036418;28;20079;-74
2021/04/04 03:00:04;;;;;;;32.90;11.20;;;;;;;5.50;69.24;102133.72;5054638;28;20045;-72
2021/04/04 03:02:37;;;;;;;46.10;12.15;;;;;;;5.38;69.36;102136.53;5054945;28;20029;-71
2021/04/04 03:05:09;;;;;;;36.95;10.95;;;;;;;5.17;70.15;102133.63;5053916;28;20052;-75
2021/04/04 03:07:47;;;;;;;38.20;11.18;;;;;;;5.01;71.17;102134.41;5038658;28;20041;-71
2021/04/04 03:10:15;;;;;;;40.58;13.13;;;;;;;5.10;71.06;102138.41;5052572;28;20049;-75
2021/04/04 03:12:44;;;;;;;36.83;12.43;;;;;;;5.06;70.88;102137.22;5054541;28;20045;-72
2021/04/04 03:15:16;;;;;;;45.30;12.10;;;;;;;5.11;70.48;102129.97;5035491;28;20052;-72
2021/04/04 03:18:03;;;;;;;42.45;12.18;;;;;;;4.94;71.00;102139.16;5059851;28;20052;-76
2021/04/04 03:20:31;;;;;;;40.92;11.30;;;;;;;5.14;70.68;102134.13;5052943;28;20052;-73
2021/04/04 03:23:04;;;;;;;48.42;13.32;;;;;;;5.25;70.61;102134.06;5053044;28;20060;-74
2021/04/04 03:25:34;;;;;;;45.28;13.07;;;;;;;5.16;70.52;102127.34;5036770;28;20045;-72
2021/04/04 03:28:03;;;;;;;39.85;12.15;;;;;;;5.26;70.32;102126.72;5036215;28;20045;-74
2021/04/04 03:30:46;;;;;;;37.47;12.57;;;;;;;5.31;70.00;102130.38;5053421;28;20049;-75
2021/04/04 03:33:23;;;;;;;41.10;13.07;;;;;;;5.11;70.99;102129.97;5036505;28;20055;-73
2021/04/04 03:36:01;;;;;;;39.60;12.40;;;;;;;4.86;71.87;102132.19;5034475;28;20045;-73
2021/04/04 03:38:35;;;;;;;45.42;13.00;;;;;;;4.65;72.23;102129.28;5036243;28;20041;-73
2021/04/04 03:41:15;;;;;;;33.38;12.43;;;;;;;5.02;71.41;102130.63;5052523;28;20060;-71
2021/04/04 03:44:49;;;;;;;43.20;14.43;;;;;;;4.82;71.89;102127.44;5052575;28;20049;-73
2021/04/04 03:47:18;;;;;;;38.65;13.23;;;;;;;5.00;71.59;102130.03;5051464;28;20041;-72
2021/04/04 03:49:47;;;;;;;42.00;13.25;;;;;;;5.01;71.71;102135.25;5034763;28;20048;-72
2021/04/04 03:52:15;;;;;;;43.70;13.75;;;;;;;5.04;71.38;102128.47;5035048;28;20048;-71
2021/04/04 03:54:51;;;;;;;40.50;13.95;;;;;;;4.96;71.25;102131.56;5035527;28;20045;-71
2021/04/04 04:01:55;;;;;;;35.95;13.05;;;;;;;4.95;71.13;102132.66;5052683;28;20120;-73
2021/04/04 04:04:25;;;;;;;36.83;13.30;;;;;;;4.75;72.37;102126.75;5052112;28;20041;-73
2021/04/04 04:06:54;;;;;;;40.25;13.70;;;;;;;4.83;71.91;102120.94;5050227;28;20060;-72
2021/04/04 04:09:26;;;;;;;40.20;14.23;;;;;;;4.70;72.68;102122.03;5050700;28;20049;-75
2021/04/04 04:16:38;;;;;;;44.95;13.00;;;;;;;4.96;71.55;102107.00;5053509;28;20124;-76
2021/04/04 04:19:24;;;;;;;38.08;13.07;;;;;;;5.09;71.38;102104.00;5051835;28;20048;-72
2021/04/04 04:22:21;;;;;;;37.63;13.13;;;;;;;5.13;70.99;102116.06;5030977;28;20045;-75
2021/04/04 04:24:52;;;;;;;;;;;;;;;4.96;71.83;102115.19;5033551;28;20049;-74
2021/04/04 04:27:42;;;;;;;35.60;12.45;;;;;;;4.78;72.20;102131.75;5016021;28;20021;-74
2021/04/04 04:30:14;;;;;;;49.95;13.07;;;;;;;4.82;72.47;102130.19;5052816;28;20048;-74
2021/04/04 04:32:43;;;;;;;43.35;12.70;;;;;;;4.81;72.25;102129.38;5056873;28;20048;-73
2021/04/04 04:35:14;;;;;;;44.58;14.55;;;;;;;4.57;72.48;102123.09;5055589;28;20049;-75
2021/04/04 04:37:48;;;;;;;40.28;13.75;;;;;;;4.90;72.20;102127.91;5056235;28;20052;-75
2021/04/04 04:40:17;;;;;;;41.50;13.13;;;;;;;4.91;71.45;102118.66;5038957;28;20041;-75
2021/04/04 04:42:56;;;;;;;60.33;15.75;;;;;;;4.80;72.28;102115.94;5056749;28;20040;-75
2021/04/04 04:45:36;;;;;;;35.58;12.77;;;;;;;4.64;72.61;102117.50;5038042;28;20052;-74
2021/04/04 04:48:05;;;;;;;43.92;14.05;;;;;;;4.73;72.74;102115.25;5055242;28;20052;-72
2021/04/04 04:50:36;;;;;;;37.80;13.40;;;;;;;4.81;71.95;102117.63;5055453;28;20041;-72
2021/04/04 04:53:06;;;;;;;46.40;14.05;;;;;;;4.86;72.07;102112.25;5055491;28;20052;-73
2021/04/04 04:55:35;;;;;;;41.10;13.40;;;;;;;4.93;71.77;102111.06;5055502;28;20045;-74
2021/04/04 04:58:23;;;;;;;44.28;14.30;;;;;;;4.96;71.17;102115.19;5056502;28;20052;-71
2021/04/04 05:01:07;;;;;;;49.40;14.43;;;;;;;4.89;71.37;102118.06;5037633;28;20151;-71
2021/04/04 05:03:35;;;;;;;46.10;15.05;;;;;;;4.83;71.75;102121.75;5021263;28;20041;-71
2021/04/04 05:06:12;;;;;;;40.65;14.60;;;;;;;4.77;72.53;102136.38;5053867;28;20056;-74
2021/04/04 05:08:49;;;;;;;35.20;14.10;;;;;;;4.89;72.05;102136.34;5055212;28;20053;-71
2021/04/04 05:11:29;;;;;;;39.92;14.40;;;;;;;4.95;71.68;102146.31;5052544;28;20060;-73
2021/04/04 05:14:03;;;;;;;46.72;14.45;;;;;;;4.62;72.77;102140.66;5038391;28;20045;-73
2021/04/04 05:16:31;;;;;;;47.30;14.05;;;;;;;4.37;73.71;102140.94;5055626;28;20057;-75
2021/04/04 05:19:00;;;;;;;44.42;14.65;;;;;;;4.49;73.86;102144.47;5036414;28;20049;-74
2021/04/04 05:21:34;;;;;;;45.60;14.77;;;;;;;4.60;73.54;102141.72;5055671;28;20079;-74
2021/04/04 05:24:06;;;;;;;44.70;15.02;;;;;;;4.51;73.47;102140.44;5054921;28;20049;-72
2021/04/04 05:26:45;;;;;;;46.53;15.38;;;;;;;4.54;73.28;102137.25;5024493;28;20044;-73
2021/04/04 05:29:19;;;;;;;40.13;14.38;;;;;;;4.57;73.19;102138.66;5045422;28;20041;-71
2021/04/04 05:31:55;;;;;;;47.45;13.93;;;;;;;4.83;71.91;102146.31;5038431;28;20053;-75
2021/04/04 05:34:28;;;;;;;43.47;14.75;;;;;;;4.94;71.36;102144.63;5035831;28;20089;-74
2021/04/04 05:37:06;;;;;;;45.38;16.05;;;;;;;4.44;72.90;102153.38;5053885;28;20047;-72
2021/04/04 05:39:37;;;;;;;46.67;14.75;;;;;;;4.32;73.93;102160.72;5054556;28;20051;-72
2021/04/04 05:42:07;;;;;;;45.70;16.58;;;;;;;4.40;73.65;102157.66;5053547;28;20058;-74
2021/04/04 05:44:59;;;;;;;46.88;14.38;;;;;;;4.47;73.54;102161.09;5055188;28;20045;-71
2021/04/04 05:47:39;;;;;;;45.13;14.93;;;;;;;4.59;72.92;102155.59;5054831;28;20040;-74
2021/04/04 05:50:21;;;;;;;51.55;15.25;;;;;;;4.43;73.18;102159.06;5036841;28;20053;-72
2021/04/04 05:53:22;;;;;;;45.42;14.98;;;;;;;4.34;73.71;102150.41;5054666;28;20045;-72
2021/04/04 05:56:34;;;;;;;51.92;15.13;;;;;;;4.94;72.33;102150.91;5037139;28;20041;-72
2021/04/04 06:03:23;;;;;;;47.95;15.63;;;;;;;4.49;73.16;102147.19;5035237;28;20045;-75
2021/04/04 06:06:07;;;;;;;44.10;14.88;;;;;;;4.47;73.07;102149.34;5054830;28;20045;-73
2021/04/04 06:09:02;;;;;;;46.03;15.93;;;;;;;4.65;72.73;102145.63;5053683;28;20049;-73
2021/04/04 06:11:51;;;;;;;40.10;15.73;;;;;;;4.70;72.46;102148.47;5034249;28;20052;-73
2021/04/04 06:19:31;;;;;;;42.72;15.32;;;;;;;4.56;72.67;102148.75;5017414;28;20053;-75
2021/04/04 06:22:38;;;;;;;35.80;14.73;;;;;;;4.56;72.08;102146.03;5032564;28;20041;-75
2021/04/04 06:25:35;;;;;;;53.00;15.27;;;;;;;4.73;72.35;102157.00;5034347;28;20137;-73
2021/04/04 06:28:23;;;;;;;43.30;16.05;;;;;;;4.63;72.07;102154.06;5033438;28;20041;-73
2021/04/04 06:31:20;;;;;;;43.80;15.23;;;;;;;4.52;72.67;102149.44;5031900;28;20060;-73
2021/04/04 06:34:07;;;;;;;38.75;14.35;;;;;;;4.39;73.21;102157.88;5000531;28;20053;-74
2021/04/04 06:36:43;;;;;;;41.70;14.80;;;;;;;4.61;72.97;102156.19;5034764;28;20037;-74
2021/04/04 06:39:36;;;;;;;41.30;16.10;;;;;;;4.95;71.52;102160.75;5018128;28;20052;-74
2021/04/04 06:42:10;;;;;;;41.22;15.68;;;;;;;4.97;71.29;102150.44;5033482;28;20060;-72
2021/04/04 06:44:53;;;;;;;39.55;16.05;;;;;;;5.11;70.50;102151.00;4984369;28;20045;-73
2021/04/04 06:47:40;;;;;;;46.40;16.30;;;;;;;5.15;70.19;102154.91;5032177;28;20048;-72
2021/04/04 06:50:22;;;;;;;51.10;16.55;;;;;;;5.12;70.29;102160.84;5032821;28;20041;-74
2021/04/04 06:53:00;;;;;;;39.70;15.00;;;;;;;5.21;70.11;102167.59;5033840;28;20045;-71
2021/04/04 06:56:04;;;;;;;44.35;16.70;;;;;;;5.33;69.94;102171.94;5016941;28;20041;-72
2021/04/04 07:02:57;;;;;;;46.42;15.88;;;;;;;5.42;69.51;102175.94;5035433;28;20041;-73
2021/04/04 07:05:30;;;;;;;46.28;16.08;;;;;;;5.19;70.02;102167.84;5017615;28;20045;-73
2021/04/04 07:08:26;;;;;;;52.40;16.52;;;;;;;5.12;70.19;102175.34;5016357;28;20045;-75
2021/04/04 07:10:55;;;;;;;52.08;17.73;;;;;;;4.89;70.60;102169.94;5032001;28;20053;-73
2021/04/04 07:17:28;;;;;;;42.35;16.15;;;;;;;4.88;71.24;102175.63;5045981;28;20056;-81
2021/04/04 07:20:13;;;;;;;50.08;15.90;;;;;;;4.87;71.27;102173.97;5057417;28;20040;-69
2021/04/04 07:23:22;;;;;;;37.17;16.05;;;;;;;5.00;71.08;102174.53;5056965;28;20056;-73
2021/04/04 07:26:18;;;;;;;42.97;16.25;;;;;;;5.27;69.77;102175.63;5062870;28;20047;-73
2021/04/04 07:32:58;;;;;;;48.58;16.17;;;;;;;5.32;69.03;102159.34;5055867;28;20045;-72
2021/04/04 07:36:15;;;;;;;42.22;14.90;;;;;;;5.54;68.54;102168.50;5062535;28;20502;-72
2021/04/04 07:39:03;;;;;;;41.45;15.50;;;;;;;5.63;68.13;102160.78;5042119;28;20048;-73
2021/04/04 07:41:56;;;;;;;;;;;;;;;5.83;67.46;102155.69;5055583;28;20037;-76
2021/04/04 07:49:40;;;;;;;45.45;15.10;;;;;;;5.65;67.99;102158.59;4974466;28;20043;-74
2021/04/04 07:52:28;;;;;;;40.45;14.68;;;;;;;5.71;67.07;102158.47;4966233;28;20502;-72
2021/04/04 07:55:12;;;;;;;39.40;15.07;;;;;;;5.97;66.59;102157.03;5024091;28;20056;-78
2021/04/04 07:58:11;;;;;;;41.55;14.93;;;;;;;5.93;66.29;102163.25;5034961;28;20048;-70
2021/04/04 08:00:45;;;;;;;40.22;14.32;;;;;;;5.79;67.14;102157.22;5054200;28;20044;-83
2021/04/04 08:03:38;;;;;;;41.45;14.75;;;;;;;6.05;66.10;102155.78;5035981;28;20044;-74
2021/04/04 08:06:11;;;;;;;40.45;14.75;;;;;;;6.10;65.55;102161.34;5044266;28;20041;-77
2021/04/04 08:08:51;;;;;;;36.70;14.07;;;;;;;6.19;64.86;102151.66;5037608;28;20037;-74
2021/04/04 08:11:48;;;;;;;37.63;14.02;;;;;;;6.35;64.36;102145.31;5021626;28;20047;-74
2021/04/04 08:18:42;;;;;;;39.88;14.05;;;;;;;6.07;65.31;102143.50;5041465;28;20072;-68
2021/04/04 08:21:22;;;;;;;42.90;14.20;;;;;;;6.01;65.17;102147.25;5036279;28;20074;-74
2021/04/04 08:24:02;;;;;;;35.22;15.55;;;;;;;6.20;65.19;102143.19;5034325;28;20041;-71
2021/04/04 08:26:42;;;;;;;41.90;14.88;;;;;;;6.32;64.90;102137.59;5033072;28;20052;-71
2021/04/04 08:29:15;;;;;;;43.20;15.48;;;;;;;6.16;64.20;102127.50;5013519;28;20046;-71
2021/04/04 08:31:47;;;;;;;31.40;13.40;;;;;;;6.31;64.65;102131.28;4998469;28;20050;-68
2021/04/04 08:34:38;;;;;;;32.83;13.00;;;;;;;6.41;64.15;102130.63;5033351;28;20048;-70
2021/04/04 08:37:50;;;;;;;32.55;12.18;;;;;;;6.98;62.76;102123.75;5019475;28;20052;-72
2021/04/04 08:40:24;;;;;;;33.63;11.75;;;;;;;7.03;62.73;102120.22;5018958;28;20205;-69
2021/04/04 08:43:10;;;;;;;34.17;11.30;;;;;;;7.40;62.02;102126.69;4955047;28;20511;-72
2021/04/04 08:50:28;;;;;;;37.55;11.82;;;;;;;6.89;63.22;102124.47;4992217;28;20045;-72
2021/04/04 08:53:05;;;;;;;35.75;12.48;;;;;;;7.24;61.63;102122.13;4989990;28;20058;-74
2021/04/04 08:55:33;;;;;;;36.58;12.27;;;;;;;7.47;60.88;102124.56;5013749;28;20049;-73
2021/04/04 08:58:02;;;;;;;29.42;11.20;;;;;;;7.58;60.84;102123.59;5031252;28;20048;-75
2021/04/04 09:00:36;;;;;;;32.65;12.10;;;;;;;7.57;59.63;102117.28;5031501;28;20042;-75
2021/04/04 09:03:09;;;;;;;32.93;11.60;;;;;;;7.30;60.16;102118.34;4997157;28;20401;-74
2021/04/04 09:05:36;;;;;;;39.80;12.55;;;;;;;7.52;60.29;102117.22;4997843;28;20292;-73
2021/04/04 09:08:04;;;;;;;37.03;11.90;;;;;;;7.97;59.76;102125.88;4983496;28;20397;-72
2021/04/04 09:10:41;;;;;;;32.25;10.90;;;;;;;7.94;59.02;102120.91;4987873;28;20045;-75
2021/04/04 09:13:14;;;;;;;35.25;10.30;;;;;;;7.76;59.09;102118.53;4970870;28;20190;-73
2021/04/04 09:15:55;;;;;;;32.80;10.63;;;;;;;8.02;58.14;102114.94;4971189;28;20053;-79
2021/04/04 09:18:49;;;;;;;35.13;10.93;;;;;;;7.89;58.02;102106.31;4974627;28;20061;-74
2021/04/04 09:21:26;;;;;;;37.20;11.45;;;;;;;7.99;57.69;102111.88;4968471;28;20420;-74
2021/04/04 09:24:00;;;;;;;31.02;10.65;;;;;;;8.30;57.81;102099.25;4973050;28;20194;-73
2021/04/04 09:26:28;;;;;;;35.35;10.85;;;;;;;8.32;57.46;102100.63;4985706;28;20049;-73
2021/04/04 09:29:00;;;;;;;37.38;10.80;;;;;;;8.35;58.24;102105.56;4975467;28;20090;-76
2021/04/04 09:31:39;;;;;;;32.15;10.40;;;;;;;8.76;56.88;102106.63;4988234;28;20174;-71
2021/04/04 09:34:13;;;;;;;36.25;11.38;;;;;;;8.78;56.96;102097.06;4955337;28;20488;-74
2021/04/04 09:36:47;;;;;;;33.28;11.25;;;;;;;7.84;58.00;102098.06;4974057;28;20523;-74
2021/04/04 09:39:29;;;;;;;34.10;11.63;;;;;;;7.86;58.43;102101.38;4963339;28;20054;-74
2021/04/04 09:42:01;;;;;;;32.75;11.80;;;;;;;8.07;57.57;102097.69;4972080;28;20041;-72
2021/04/04 09:44:35;;;;;;;34.90;11.75;;;;;;;7.93;58.68;102088.25;4992034;28;20057;-79
2021/04/04 09:47:05;;;;;;;33.80;11.32;;;;;;;8.26;57.98;102090.72;4989915;28;20252;-75
2021/04/04 09:49:48;;;;;;;41.60;12.75;;;;;;;8.45;57.50;102093.84;4971093;28;20519;-75
2021/04/04 09:52:26;;;;;;;29.42;10.40;;;;;;;8.77;56.57;102087.13;4974704;28;20069;-72
2021/04/04 09:54:55;;;;;;;34.45;12.07;;;;;;;8.53;55.90;102085.94;4974749;28;20053;-72
2021/04/04 09:57:22;;;;;;;32.85;12.77;;;;;;;8.54;56.19;102098.56;4992596;28;20057;-74
2021/04/04 09:59:51;;;;;;;34.90;12.95;;;;;;;8.46;56.04;102093.56;4973343;28;20054;-75
2021/04/04 10:02:39;;;;;;;31.30;11.68;;;;;;;8.45;56.16;102088.34;4987127;28;20191;-73
2021/04/04 10:05:10;;;;;;;31.98;12.85;;;;;;;8.72;55.67;102089.88;4971749;28;20049;-68
2021/04/04 10:07:39;;;;;;;35.95;12.02;;;;;;;8.78;55.35;102088.81;4968572;28;20053;-68
2021/04/04 10:10:09;;;;;;;32.97;12.85;;;;;;;8.66;55.15;102084.63;4970246;28;20057;-77
2021/04/04 10:13:02;;;;;;;34.33;13.38;;;;;;;8.85;55.13;102074.81;4986044;28;20219;-76
2021/04/04 10:15:41;;;;;;;40.75;13.55;;;;;;;8.95;54.99;102077.59;4960815;28;20053;-70
2021/04/04 10:18:31;;;;;;;35.10;14.15;;;;;;;8.96;54.56;102074.56;5006125;28;20500;-75
2021/04/04 10:21:17;;;;;;;33.97;13.93;;;;;;;8.59;55.57;102073.06;5012853;28;20051;-78
2021/04/04 10:23:50;;;;;;;35.15;13.27;;;;;;;8.93;55.31;102068.78;5009199;28;20057;-77
2021/04/04 10:26:21;;;;;;;37.05;13.65;;;;;;;8.81;55.13;102063.53;5012718;28;20412;-73
2021/04/04 10:29:01;;;;;;;37.90;15.55;;;;;;;8.89;55.42;102063.00;5009208;28;20515;-76
2021/04/04 10:35:41;;;;;;;36.30;14.98;;;;;;;9.15;53.94;102054.84;5009359;28;20396;-78
2021/04/04 10:38:24;;;;;;;39.83;14.48;;;;;;;9.35;53.14;102052.13;4990209;28;20232;-77
2021/04/04 10:40:54;;;;;;;35.05;13.98;;;;;;;9.54;53.10;102048.56;5009333;28;20509;-76
2021/04/04 10:43:25;;;;;;;39.17;15.68;;;;;;;9.39;52.50;102058.75;4989973;28;20271;-73
2021/04/04 10:46:04;;;;;;;34.10;14.65;;;;;;;9.38;53.28;102046.91;5005354;28;20053;-73
2021/04/04 10:52:58;;;;;;;36.80;15.75;;;;;;;9.30;53.87;102054.88;5008775;28;20229;-71
2021/04/04 10:55:25;;;;;;;38.15;15.77;;;;;;;9.57;53.64;102042.53;4986056;28;20076;-71
2021/04/04 10:57:55;;;;;;;35.85;15.30;;;;;;;9.57;53.08;102042.53;5049643;28;20049;-70
2021/04/04 11:00:22;;;;;;;34.20;15.45;;;;;;;9.75;52.43;102030.97;5018397;28;20045;-73
2021/04/04 11:02:49;;;;;;;34.67;14.45;;;;;;;9.88;52.35;102026.84;5051778;28;20518;-73
2021/04/04 11:05:17;;;;;;;34.00;14.38;;;;;;;9.83;52.12;102016.66;5034141;28;20052;-72
2021/04/04 11:07:45;;;;;;;41.60;14.95;;;;;;;9.85;51.70;102013.66;5051344;28;20049;-70
2021/04/04 11:10:12;;;;;;;32.55;15.18;;;;;;;9.84;51.91;102007.31;5033592;28;20152;-67
2021/04/04 11:12:41;;;;;;;32.65;14.98;;;;;;;9.91;51.15;102004.25;5052003;28;20053;-72
2021/04/04 11:15:13;;;;;;;37.60;14.95;;;;;;;9.99;51.34;102014.69;5034649;28;20045;-75
2021/04/04 11:17:41;;;;;;;33.08;14.60;;;;;;;10.29;51.09;102000.91;5033809;28;20053;-71
2021/04/04 11:20:18;;;;;;;35.20;15.77;;;;;;;9.97;51.33;101992.97;5051768;28;20049;-72
2021/04/04 11:23:04;;;;;;;40.33;14.73;;;;;;;10.29;51.00;102000.09;5036363;28;20060;-73
2021/04/04 11:25:31;;;;;;;36.92;16.30;;;;;;;9.80;52.04;101992.44;5050786;28;20052;-72
2021/04/04 11:27:58;;;;;;;41.47;15.75;;;;;;;10.12;50.89;101989.38;5034655;28;20479;-74
2021/04/04 11:30:29;;;;;;;34.80;16.00;;;;;;;9.96;51.30;101988.56;5017411;28;20053;-72
2021/04/04 11:33:17;;;;;;;36.35;15.60;;;;;;;9.84;52.02;101982.53;5052269;28;20068;-74
2021/04/04 11:35:58;;;;;;;43.42;17.35;;;;;;;9.78;51.36;101971.81;5051370;28;20060;-72
2021/04/04 11:38:26;;;;;;;36.10;16.27;;;;;;;9.92;51.58;101975.66;5051831;28;20049;-73
2021/04/04 11:41:23;;;;;;;36.30;16.73;;;;;;;9.92;51.83;101968.19;5033821;28;20056;-73
2021/04/04 11:43:53;;;;;;;42.40;17.10;;;;;;;10.33;51.00;101948.84;5017141;28;20464;-72
2021/04/04 11:46:43;;;;;;;38.60;18.02;;;;;;;10.23;50.42;101950.53;5034796;28;20483;-70
2021/04/04 11:50:01;;;;;;;40.80;17.60;;;;;;;10.51;49.68;101943.53;5051254;28;20116;-68
2021/04/04 11:52:35;;;;;;;32.17;16.23;;;;;;;10.58;50.14;101937.72;5051168;28;20063;-70
2021/04/04 11:55:03;;;;;;;34.75;17.70;;;;;;;10.76;49.04;101943.38;5052675;28;20047;-72
2021/04/04 11:57:33;;;;;;;42.28;18.38;;;;;;;10.78;49.04;101941.16;5018565;28;20056;-71
2021/04/04 12:00:18;;;;;;;41.83;18.43;;;;;;;10.88;48.68;101937.53;5035212;28;20052;-73
2021/04/04 12:07:11;;;;;;;40.10;18.48;;;;;;;10.92;48.76;101942.19;5050305;28;20053;-74
2021/04/04 12:09:39;;;;;;;39.42;18.95;;;;;;;10.77;49.42;101934.03;5033299;28;20045;-70
2021/04/04 12:12:07;;;;;;;43.25;19.90;;;;;;;11.03;48.97;101926.41;5034246;28;20057;-73
2021/04/04 12:14:47;;;;;;;50.78;21.05;;;;;;;10.75;48.88;101913.34;5051788;28;20054;-72
2021/04/04 12:17:15;;;;;;;40.17;19.27;;;;;;;10.72;49.27;101909.22;5050214;28;20053;-73
2021/04/04 12:19:44;;;;;;;43.83;20.25;;;;;;;10.86;48.38;101913.00;5048563;28;20500;-73
2021/04/04 12:22:12;;;;;;;39.50;19.30;;;;;;;10.79;48.39;101912.47;5050616;28;20479;-70
2021/04/04 12:24:52;;;;;;;38.33;18.98;;;;;;;10.85;48.56;101918.78;5051905;28;20056;-70
2021/04/04 12:27:21;;;;;;;36.70;19.58;;;;;;;10.91;48.08;101921.22;5033465;28;20052;-72
2021/04/04 12:30:14;;;;;;;47.88;20.33;;;;;;;10.58;48.38;101913.75;5035370;28;20049;-70
2021/04/04 12:37:19;;;;;;;37.22;18.73;;;;;;;10.89;47.44;101904.16;5051843;28;20136;-71
2021/04/04 12:39:52;;;;;;;37.10;19.63;;;;;;;10.88;47.27;101904.47;5034459;28;20052;-68
2021/04/04 12:42:27;;;;;;;42.50;19.73;;;;;;;11.07;47.63;101900.72;5051212;28;20052;-72
2021/04/04 12:44:57;;;;;;;38.42;18.30;;;;;;;11.04;46.94;101890.25;5051044;28;20480;-70
2021/04/04 12:47:38;;;;;;;38.08;18.48;;;;;;;11.18;46.64;101895.94;5003715;28;20483;-69
2021/04/04 12:50:14;;;;;;;36.28;17.65;;;;;;;10.94;47.56;101882.06;4976626;28;20057;-70
2021/04/04 12:52:50;;;;;;;40.00;17.88;;;;;;;11.19;46.69;101887.38;5009327;28;20063;-67
2021/04/04 12:55:25;;;;;;;37.95;18.77;;;;;;;11.06;47.19;101892.72;4990268;28;20064;-78
2021/04/04 12:58:09;;;;;;;38.05;19.02;;;;;;;11.00;47.48;101880.09;4977171;28;20053;-68
2021/04/04 13:00:46;;;;;;;38.72;17.33;;;;;;;11.33;46.12;101880.06;4938047;28;20063;-67
2021/04/04 13:07:39;;;;;;;35.92;17.35;;;;;;;11.17;46.41;101880.50;4968348;28;20049;-63
2021/04/04 13:10:14;;;;;;;36.13;17.23;;;;;;;11.15;45.98;101878.03;4986007;28;20056;-71
2021/04/04 13:12:42;;;;;;;39.38;17.80;;;;;;;11.05;46.75;101878.09;4986761;28;20045;-62
2021/04/04 13:15:21;;;;;;;34.10;17.83;;;;;;;11.13;46.29;101877.50;4990668;28;20045;-66
2021/04/04 13:17:48;;;;;;;37.40;16.50;;;;;;;11.53;45.43;101879.06;4971884;28;20079;-71
2021/04/04 13:20:18;;;;;;;44.42;19.05;;;;;;;11.38;45.13;101887.50;4970853;28;20506;-68
2021/04/04 13:22:45;;;;;;;39.42;17.67;;;;;;;11.03;45.92;101863.81;4989424;28;20049;-66
2021/04/04 13:25:12;;;;;;;41.75;16.92;;;;;;;11.44;44.96;101861.47;4989725;28;20499;-66
2021/04/04 13:27:40;;;;;;;31.33;16.65;;;;;;;11.42;44.33;101865.66;4986521;28;20436;-65
2021/04/04 13:30:18;;;;;;;31.58;16.85;;;;;;;11.34;45.25;101861.59;4979896;28;20360;-69
2021/04/04 13:32:49;;;;;;;34.00;17.02;;;;;;;11.46;45.33;101859.25;4969945;28;20057;-66
2021/04/04 13:35:27;;;;;;;34.85;16.05;;;;;;;11.77;44.20;101857.84;4985412;28;20053;-69
2021/04/04 13:37:58;;;;;;;42.42;17.10;;;;;;;11.42;44.27;101851.88;4967297;28;20060;-66
2021/04/04 13:40:28;;;;;;;32.78;16.85;;;;;;;11.80;44.25;101842.66;4984412;28;20104;-67
2021/04/04 13:43:00;;;;;;;36.25;16.70;;;;;;;12.04;45.22;101835.16;4986617;28;20075;-69
2021/04/04 13:45:43;;;;;;;37.45;16.63;;;;;;;11.95;44.28;101856.25;4985819;28;20072;-64